sensor_id;sensor_type;location;lat;lon;timestamp;pressure;altitude;pressure_sealevel;temperature;humidity
74594;BME280;63097;51.872;4.460;2023-03-01T00:01:25;103403.00;;;0.91;89.32
74594;BME280;63097;51.872;4.460;2023-03-01T00:03:51;103401.66;;;0.75;89.46
74594;BME280;63097;51.872;4.460;2023-03-01T00:06:18;103395.63;;;0.92;89.96
74594;BME280;63097;51.872;4.460;2023-03-01T00:08:43;103396.25;;;0.84;89.43
74594;BME280;63097;51.872;4.460;2023-03-01T00:13:37;103388.13;;;0.51;89.98
74594;BME280;63097;51.872;4.460;2023-03-01T00:16:07;103396.06;;;0.43;90.45
74594;BME280;63097;51.872;4.460;2023-03-01T00:18:33;103390.09;;;0.27;91.04
74594;BME280;63097;51.872;4.460;2023-03-01T00:20:59;103396.81;;;0.34;90.86
74594;BME280;63097;51.872;4.460;2023-03-01T00:23:25;103387.59;;;0.24;91.45
74594;BME280;63097;51.872;4.460;2023-03-01T00:25:51;103397.44;;;0.38;91.22
74594;BME280;63097;51.872;4.460;2023-03-01T00:28:17;103385.59;;;0.37;91.52
74594;BME280;63097;51.872;4.460;2023-03-01T00:30:43;103385.00;;;0.34;91.30
74594;BME280;63097;51.872;4.460;2023-03-01T00:33:08;103380.66;;;0.20;91.39
74594;BME280;63097;51.872;4.460;2023-03-01T00:35:34;103391.59;;;0.20;91.68
74594;BME280;63097;51.872;4.460;2023-03-01T00:38:00;103387.84;;;0.10;91.64
74594;BME280;63097;51.872;4.460;2023-03-01T00:40:26;103391.97;;;0.16;91.81
74594;BME280;63097;51.872;4.460;2023-03-01T00:42:52;103387.59;;;0.13;91.54
74594;BME280;63097;51.872;4.460;2023-03-01T00:45:17;103387.09;;;0.19;91.40
74594;BME280;63097;51.872;4.460;2023-03-01T00:47:43;103390.94;;;0.17;91.17
74594;BME280;63097;51.872;4.460;2023-03-01T00:50:09;103391.34;;;0.12;91.14
74594;BME280;63097;51.872;4.460;2023-03-01T00:52:34;103395.19;;;0.10;90.99
74594;BME280;63097;51.872;4.460;2023-03-01T00:55:00;103387.09;;;0.19;90.72
74594;BME280;63097;51.872;4.460;2023-03-01T00:57:25;103381.63;;;0.19;90.69
74594;BME280;63097;51.872;4.460;2023-03-01T00:59:50;103387.84;;;0.21;90.35
74594;BME280;63097;51.872;4.460;2023-03-01T01:02:16;103384.84;;;0.46;90.12
74594;BME280;63097;51.872;4.460;2023-03-01T01:04:41;103384.25;;;0.21;89.98
74594;BME280;63097;51.872;4.460;2023-03-01T01:07:06;103387.38;;;0.27;89.97
74594;BME280;63097;51.872;4.460;2023-03-01T01:09:32;103385.38;;;0.40;89.61
74594;BME280;63097;51.872;4.460;2023-03-01T01:11:57;103383.88;;;0.25;89.67
74594;BME280;63097;51.872;4.460;2023-03-01T01:14:22;103384.09;;;0.11;89.72
74594;BME280;63097;51.872;4.460;2023-03-01T01:16:48;103381.59;;;-0.03;90.15
74594;BME280;63097;51.872;4.460;2023-03-01T01:19:13;103381.25;;;-0.10;90.55
74594;BME280;63097;51.872;4.460;2023-03-01T01:21:39;103384.31;;;-0.25;90.72
74594;BME280;63097;51.872;4.460;2023-03-01T01:24:05;103371.53;;;-0.14;91.11
74594;BME280;63097;51.872;4.460;2023-03-01T01:26:32;103371.38;;;-0.23;90.83
74594;BME280;63097;51.872;4.460;2023-03-01T01:29:00;103376.34;;;-0.28;91.16
74594;BME280;63097;51.872;4.460;2023-03-01T01:31:26;103361.63;;;-0.49;90.84
74594;BME280;63097;51.872;4.460;2023-03-01T01:33:53;103360.34;;;-0.56;91.30
74594;BME280;63097;51.872;4.460;2023-03-01T01:36:18;103353.47;;;-0.73;91.33
74594;BME280;63097;51.872;4.460;2023-03-01T01:38:44;103355.31;;;-0.84;91.60
74594;BME280;63097;51.872;4.460;2023-03-01T01:41:11;103350.31;;;-0.90;91.86
74594;BME280;63097;51.872;4.460;2023-03-01T01:43:43;103341.69;;;-0.97;92.04
74594;BME280;63097;51.872;4.460;2023-03-01T01:46:29;103323.47;;;-1.20;92.35
74594;BME280;63097;51.872;4.460;2023-03-01T01:49:01;103332.94;;;-1.13;92.40
74594;BME280;63097;51.872;4.460;2023-03-01T01:51:31;103339.97;;;-1.22;92.11
74594;BME280;63097;51.872;4.460;2023-03-01T01:54:00;103323.84;;;-1.25;92.52
74594;BME280;63097;51.872;4.460;2023-03-01T01:56:26;103331.72;;;-1.33;92.68
74594;BME280;63097;51.872;4.460;2023-03-01T01:58:53;103320.78;;;-1.33;93.08
74594;BME280;63097;51.872;4.460;2023-03-01T02:01:20;103325.63;;;-1.36;93.28
74594;BME280;63097;51.872;4.460;2023-03-01T02:03:46;103326.06;;;-1.42;92.85
74594;BME280;63097;51.872;4.460;2023-03-01T02:06:37;103326.72;;;-1.39;93.67
74594;BME280;63097;51.872;4.460;2023-03-01T02:09:08;103319.91;;;-1.33;93.93
74594;BME280;63097;51.872;4.460;2023-03-01T02:11:36;103320.78;;;-1.33;94.20
74594;BME280;63097;51.872;4.460;2023-03-01T02:14:02;103322.19;;;-1.27;94.20
74594;BME280;63097;51.872;4.460;2023-03-01T02:16:27;103325.66;;;-1.02;94.99
74594;BME280;63097;51.872;4.460;2023-03-01T02:18:52;103327.84;;;-1.18;94.04
74594;BME280;63097;51.872;4.460;2023-03-01T02:21:30;103318.13;;;-1.22;94.74
74594;BME280;63097;51.872;4.460;2023-03-01T02:24:15;103317.19;;;-1.33;94.20
74594;BME280;63097;51.872;4.460;2023-03-01T02:26:48;103312.09;;;-1.38;94.18
74594;BME280;63097;51.872;4.460;2023-03-01T02:29:15;103318.72;;;-1.29;94.61
74594;BME280;63097;51.872;4.460;2023-03-01T02:31:41;103316.56;;;-1.37;94.65
74594;BME280;63097;51.872;4.460;2023-03-01T02:34:08;103318.31;;;-1.36;94.93
74594;BME280;63097;51.872;4.460;2023-03-01T02:36:45;103301.69;;;-1.33;94.78
74594;BME280;63097;51.872;4.460;2023-03-01T02:39:16;103299.91;;;-1.45;94.35
74594;BME280;63097;51.872;4.460;2023-03-01T02:41:47;103306.91;;;-1.53;94.36
74594;BME280;63097;51.872;4.460;2023-03-01T02:44:14;103300.91;;;-1.58;94.29
74594;BME280;63097;51.872;4.460;2023-03-01T02:46:46;103303.00;;;-1.62;94.51
74594;BME280;63097;51.872;4.460;2023-03-01T02:54:56;103300.09;;;-1.71;94.71
74594;BME280;63097;51.872;4.460;2023-03-01T02:57:24;103299.13;;;-1.70;94.97
74594;BME280;63097;51.872;4.460;2023-03-01T02:59:51;103296.59;;;-1.73;95.26
74594;BME280;63097;51.872;4.460;2023-03-01T03:02:26;103298.28;;;-1.83;94.85
74594;BME280;63097;51.872;4.460;2023-03-01T03:04:51;103302.09;;;-1.86;94.75
74594;BME280;63097;51.872;4.460;2023-03-01T03:07:17;103296.09;;;-1.91;94.70
74594;BME280;63097;51.872;4.460;2023-03-01T03:09:42;103293.38;;;-1.91;94.82
74594;BME280;63097;51.872;4.460;2023-03-01T03:12:07;103295.59;;;-1.96;94.59
74594;BME280;63097;51.872;4.460;2023-03-01T03:14:33;103290.56;;;-2.02;95.08
74594;BME280;63097;51.872;4.460;2023-03-01T03:16:58;103290.25;;;-2.10;94.56
74594;BME280;63097;51.872;4.460;2023-03-01T03:19:23;103282.06;;;-2.10;94.90
74594;BME280;63097;51.872;4.460;2023-03-01T03:21:49;103289.59;;;-2.14;94.71
74594;BME280;63097;51.872;4.460;2023-03-01T03:24:14;103293.53;;;-2.18;94.73
74594;BME280;63097;51.872;4.460;2023-03-01T03:26:39;103288.31;;;-2.21;95.20
74594;BME280;63097;51.872;4.460;2023-03-01T03:29:05;103286.88;;;-2.14;95.22
74594;BME280;63097;51.872;4.460;2023-03-01T03:31:30;103276.19;;;-2.17;95.48
74594;BME280;63097;51.872;4.460;2023-03-01T03:33:55;103273.78;;;-2.21;95.52
74594;BME280;63097;51.872;4.460;2023-03-01T03:36:23;103271.94;;;-2.21;95.69
74594;BME280;63097;51.872;4.460;2023-03-01T03:38:49;103275.88;;;-2.25;95.83
74594;BME280;63097;51.872;4.460;2023-03-01T03:41:15;103279.47;;;-2.24;95.88
74594;BME280;63097;51.872;4.460;2023-03-01T03:43:41;103278.59;;;-2.25;95.76
74594;BME280;63097;51.872;4.460;2023-03-01T03:46:07;103260.84;;;-2.43;95.54
74594;BME280;63097;51.872;4.460;2023-03-01T03:48:43;103278.06;;;-2.30;95.75
74594;BME280;63097;51.872;4.460;2023-03-01T03:51:13;103272.94;;;-2.34;95.46
74594;BME280;63097;51.872;4.460;2023-03-01T03:53:40;103277.31;;;-2.32;95.58
74594;BME280;63097;51.872;4.460;2023-03-01T03:56:05;103276.78;;;-2.37;95.24
74594;BME280;63097;51.872;4.460;2023-03-01T03:58:31;103273.28;;;-2.39;95.28
74594;BME280;63097;51.872;4.460;2023-03-01T04:00:57;103265.00;;;-2.37;95.08
74594;BME280;63097;51.872;4.460;2023-03-01T04:03:23;103265.22;;;-2.40;95.09
74594;BME280;63097;51.872;4.460;2023-03-01T04:05:50;103272.94;;;-2.34;95.19
74594;BME280;63097;51.872;4.460;2023-03-01T04:08:16;103268.91;;;-2.41;94.97
74594;BME280;63097;51.872;4.460;2023-03-01T04:10:46;103260.19;;;-2.46;94.56
74594;BME280;63097;51.872;4.460;2023-03-01T04:13:14;103266.41;;;-2.44;94.59
74594;BME280;63097;51.872;4.460;2023-03-01T04:15:40;103267.84;;;-2.51;94.58
74594;BME280;63097;51.872;4.460;2023-03-01T04:18:06;103264.00;;;-2.49;94.60
74594;BME280;63097;51.872;4.460;2023-03-01T04:20:34;103275.47;;;-2.44;94.83
74594;BME280;63097;51.872;4.460;2023-03-01T04:23:14;103273.19;;;-2.50;94.53
74594;BME280;63097;51.872;4.460;2023-03-01T04:28:07;103267.19;;;-2.42;94.34
74594;BME280;63097;51.872;4.460;2023-03-01T04:30:33;103265.13;;;-2.51;94.49
74594;BME280;63097;51.872;4.460;2023-03-01T04:32:58;103259.09;;;-2.56;94.46
74594;BME280;63097;51.872;4.460;2023-03-01T04:35:23;103262.69;;;-2.56;94.19
74594;BME280;63097;51.872;4.460;2023-03-01T04:37:49;103255.72;;;-2.60;94.01
74594;BME280;63097;51.872;4.460;2023-03-01T04:40:14;103268.81;;;-2.65;94.40
74594;BME280;63097;51.872;4.460;2023-03-01T04:42:39;103265.19;;;-2.65;94.44
74594;BME280;63097;51.872;4.460;2023-03-01T04:45:05;103259.34;;;-2.72;94.50
74594;BME280;63097;51.872;4.460;2023-03-01T04:47:31;103254.53;;;-2.68;94.35
74594;BME280;63097;51.872;4.460;2023-03-01T04:49:56;103250.28;;;-2.72;94.29
74594;BME280;63097;51.872;4.460;2023-03-01T04:52:21;103243.31;;;-2.64;94.52
74594;BME280;63097;51.872;4.460;2023-03-01T04:54:47;103242.09;;;-2.60;94.28
74594;BME280;63097;51.872;4.460;2023-03-01T04:57:12;103244.38;;;-2.41;94.41
74594;BME280;63097;51.872;4.460;2023-03-01T04:59:37;103230.63;;;-2.40;94.14
74594;BME280;63097;51.872;4.460;2023-03-01T05:02:03;103231.09;;;-2.33;93.97
74594;BME280;63097;51.872;4.460;2023-03-01T05:04:28;103230.88;;;-2.43;93.99
74594;BME280;63097;51.872;4.460;2023-03-01T05:06:53;103218.69;;;-2.50;94.00
74594;BME280;63097;51.872;4.460;2023-03-01T05:09:19;103230.78;;;-2.54;93.68
74594;BME280;63097;51.872;4.460;2023-03-01T05:11:44;103227.72;;;-2.49;93.93
74594;BME280;63097;51.872;4.460;2023-03-01T05:14:10;103222.06;;;-2.46;93.72
74594;BME280;63097;51.872;4.460;2023-03-01T05:16:36;103215.31;;;-2.53;93.78
74594;BME280;63097;51.872;4.460;2023-03-01T05:19:02;103215.19;;;-2.52;93.66
74594;BME280;63097;51.872;4.460;2023-03-01T05:21:28;103223.38;;;-2.64;93.62
74594;BME280;63097;51.872;4.460;2023-03-01T05:23:53;103220.00;;;-2.68;93.56
74594;BME280;63097;51.872;4.460;2023-03-01T05:26:20;103212.03;;;-2.71;93.93
74594;BME280;63097;51.872;4.460;2023-03-01T05:28:45;103212.03;;;-2.71;93.67
74594;BME280;63097;51.872;4.460;2023-03-01T05:31:10;103201.59;;;-2.64;93.89
74594;BME280;63097;51.872;4.460;2023-03-01T05:33:37;103198.53;;;-2.72;93.74
74594;BME280;63097;51.872;4.460;2023-03-01T05:36:03;103193.06;;;-2.72;93.84
74594;BME280;63097;51.872;4.460;2023-03-01T05:38:29;103189.72;;;-2.76;93.93
74594;BME280;63097;51.872;4.460;2023-03-01T05:40:54;103186.31;;;-2.67;94.14
74594;BME280;63097;51.872;4.460;2023-03-01T05:43:20;103181.31;;;-2.60;93.92
74594;BME280;63097;51.872;4.460;2023-03-01T05:45:45;103178.53;;;-2.35;94.08
74594;BME280;63097;51.872;4.460;2023-03-01T05:48:11;103178.69;;;-2.49;93.88
74594;BME280;63097;51.872;4.460;2023-03-01T05:50:39;103184.56;;;-2.55;93.66
74594;BME280;63097;51.872;4.460;2023-03-01T05:53:19;103177.84;;;-2.62;93.32
74594;BME280;63097;51.872;4.460;2023-03-01T05:55:45;103184.72;;;-2.69;93.51
74594;BME280;63097;51.872;4.460;2023-03-01T05:58:12;103189.72;;;-2.76;93.58
74594;BME280;63097;51.872;4.460;2023-03-01T06:00:38;103188.16;;;-2.67;93.60
74594;BME280;63097;51.872;4.460;2023-03-01T06:03:03;103184.78;;;-2.71;93.55
74594;BME280;63097;51.872;4.460;2023-03-01T06:05:29;103170.13;;;-2.93;93.68
74594;BME280;63097;51.872;4.460;2023-03-01T06:07:55;103184.50;;;-2.79;93.36
74594;BME280;63097;51.872;4.460;2023-03-01T06:10:21;103178.59;;;-2.85;93.34
74594;BME280;63097;51.872;4.460;2023-03-01T06:12:47;103181.31;;;-2.85;93.28
74594;BME280;63097;51.872;4.460;2023-03-01T06:15:15;103185.69;;;-2.95;92.97
74594;BME280;63097;51.872;4.460;2023-03-01T06:17:42;103183.72;;;-2.81;93.08
74594;BME280;63097;51.872;4.460;2023-03-01T06:20:19;103182.84;;;-2.81;93.08
74594;BME280;63097;51.872;4.460;2023-03-01T06:22:46;103184.50;;;-2.79;93.10
74594;BME280;63097;51.872;4.460;2023-03-01T06:25:13;103190.25;;;-2.83;93.03
74594;BME280;63097;51.872;4.460;2023-03-01T06:27:39;103201.91;;;-2.81;92.88
74594;BME280;63097;51.872;4.460;2023-03-01T06:30:05;103202.44;;;-2.89;92.96
74594;BME280;63097;51.872;4.460;2023-03-01T06:32:30;103210.63;;;-2.89;92.76
74594;BME280;63097;51.872;4.460;2023-03-01T06:34:55;103203.22;;;-2.87;93.14
74594;BME280;63097;51.872;4.460;2023-03-01T06:37:21;103194.28;;;-2.89;92.95
74594;BME280;63097;51.872;4.460;2023-03-01T06:39:46;103195.16;;;-2.88;93.01
74594;BME280;63097;51.872;4.460;2023-03-01T06:42:11;103204.09;;;-2.86;93.03
74594;BME280;63097;51.872;4.460;2023-03-01T06:44:37;103206.69;;;-2.85;93.41
74594;BME280;63097;51.872;4.460;2023-03-01T06:47:03;103199.19;;;-2.81;93.47
74594;BME280;63097;51.872;4.460;2023-03-01T06:49:28;103211.28;;;-2.60;93.26
74594;BME280;63097;51.872;4.460;2023-03-01T06:51:54;103207.13;;;-2.53;93.13
74594;BME280;63097;51.872;4.460;2023-03-01T06:54:19;103201.16;;;-2.58;92.72
74594;BME280;63097;51.872;4.460;2023-03-01T06:56:46;103195.59;;;-2.57;92.68
74594;BME280;63097;51.872;4.460;2023-03-01T06:59:12;103204.53;;;-2.55;92.88
74594;BME280;63097;51.872;4.460;2023-03-01T07:01:37;103204.53;;;-2.55;92.63
74594;BME280;63097;51.872;4.460;2023-03-01T07:04:02;103200.81;;;-2.54;92.92
74594;BME280;63097;51.872;4.460;2023-03-01T07:06:28;103198.41;;;-2.46;92.44
74594;BME280;63097;51.872;4.460;2023-03-01T07:08:53;103209.31;;;-2.46;92.76
74594;BME280;63097;51.872;4.460;2023-03-01T07:11:18;103202.63;;;-2.42;92.55
74594;BME280;63097;51.872;4.460;2023-03-01T07:13:44;103192.16;;;-2.35;92.56
74594;BME280;63097;51.872;4.460;2023-03-01T07:16:09;103195.22;;;-2.27;92.86
74594;BME280;63097;51.872;4.460;2023-03-01T07:18:34;103197.13;;;-2.17;92.84
74594;BME280;63097;51.872;4.460;2023-03-01T07:21:11;103194.38;;;-2.04;92.29
74594;BME280;63097;51.872;4.460;2023-03-01T07:23:37;103204.91;;;-1.87;92.17
74594;BME280;63097;51.872;4.460;2023-03-01T07:26:03;103202.28;;;-1.65;91.96
74594;BME280;63097;51.872;4.460;2023-03-01T07:28:28;103202.28;;;-1.41;92.24
74594;BME280;63097;51.872;4.460;2023-03-01T07:30:54;103187.81;;;-1.20;91.63
74594;BME280;63097;51.872;4.460;2023-03-01T07:33:20;103198.41;;;-0.93;91.04
74594;BME280;63097;51.872;4.460;2023-03-01T07:35:45;103196.97;;;-0.75;90.17
74594;BME280;63097;51.872;4.460;2023-03-01T07:38:10;103188.03;;;-0.55;90.04
74594;BME280;63097;51.872;4.460;2023-03-01T07:40:36;103185.66;;;-0.26;87.23
74594;BME280;63097;51.872;4.460;2023-03-01T07:43:01;103191.97;;;-0.04;85.07
74594;BME280;63097;51.872;4.460;2023-03-01T07:45:29;103187.44;;;0.18;82.88
74594;BME280;63097;51.872;4.460;2023-03-01T07:47:55;103193.38;;;0.34;82.50
74594;BME280;63097;51.872;4.460;2023-03-01T07:50:22;103196.16;;;0.54;82.14
74594;BME280;63097;51.872;4.460;2023-03-01T07:52:48;103194.31;;;0.75;82.73
74594;BME280;63097;51.872;4.460;2023-03-01T07:55:15;103205.22;;;0.86;78.21
74594;BME280;63097;51.872;4.460;2023-03-01T07:57:40;103192.13;;;1.11;78.64
74594;BME280;63097;51.872;4.460;2023-03-01T08:00:07;103189.91;;;1.25;76.94
74594;BME280;63097;51.872;4.460;2023-03-01T08:02:33;103189.53;;;1.39;76.78
74594;BME280;63097;51.872;4.460;2023-03-01T08:04:58;103187.59;;;1.51;75.66
74594;BME280;63097;51.872;4.460;2023-03-01T08:07:23;103196.34;;;1.75;74.47
74594;BME280;63097;51.872;4.460;2023-03-01T08:09:48;103196.91;;;1.69;74.55
74594;BME280;63097;51.872;4.460;2023-03-01T08:12:14;103189.38;;;2.01;75.28
74594;BME280;63097;51.872;4.460;2023-03-01T08:14:39;103195.94;;;2.29;71.23
74594;BME280;63097;51.872;4.460;2023-03-01T08:17:04;103198.97;;;2.26;71.20
74594;BME280;63097;51.872;4.460;2023-03-01T08:19:30;103196.78;;;2.29;69.91
74594;BME280;63097;51.872;4.460;2023-03-01T08:21:55;103202.88;;;2.33;69.92
74594;BME280;63097;51.872;4.460;2023-03-01T08:24:21;103183.41;;;2.45;70.57
74594;BME280;63097;51.872;4.460;2023-03-01T08:26:46;103186.66;;;2.20;70.30
74594;BME280;63097;51.872;4.460;2023-03-01T08:29:11;103184.94;;;2.38;70.99
74594;BME280;63097;51.872;4.460;2023-03-01T08:31:39;103183.22;;;2.37;70.20
74594;BME280;63097;51.872;4.460;2023-03-01T08:34:08;103178.16;;;2.42;69.23
74594;BME280;63097;51.872;4.460;2023-03-01T08:36:42;103177.91;;;2.64;67.66
74594;BME280;63097;51.872;4.460;2023-03-01T08:39:09;103178.47;;;2.77;66.01
74594;BME280;63097;51.872;4.460;2023-03-01T08:41:35;103181.66;;;2.92;66.23
74594;BME280;63097;51.872;4.460;2023-03-01T08:44:01;103184.84;;;2.87;66.44
74594;BME280;63097;51.872;4.460;2023-03-01T08:46:28;103176.25;;;3.09;65.75
74594;BME280;63097;51.872;4.460;2023-03-01T08:48:53;103183.59;;;3.28;65.32
74594;BME280;63097;51.872;4.460;2023-03-01T08:51:20;103175.16;;;3.49;63.97
74594;BME280;63097;51.872;4.460;2023-03-01T08:53:46;103179.91;;;3.56;63.40
74594;BME280;63097;51.872;4.460;2023-03-01T08:56:12;103173.69;;;3.81;61.83
74594;BME280;63097;51.872;4.460;2023-03-01T08:58:37;103166.66;;;3.96;62.95
74594;BME280;63097;51.872;4.460;2023-03-01T09:01:07;103175.00;;;4.32;62.14
74594;BME280;63097;51.872;4.460;2023-03-01T09:03:33;103178.81;;;4.66;61.37
74594;BME280;63097;51.872;4.460;2023-03-01T09:06:03;103160.88;;;5.05;59.47
74594;BME280;63097;51.872;4.460;2023-03-01T09:08:28;103161.47;;;5.17;59.55
74594;BME280;63097;51.872;4.460;2023-03-01T09:10:54;103155.66;;;5.45;56.98
74594;BME280;63097;51.872;4.460;2023-03-01T09:13:19;103161.00;;;5.21;57.40
74594;BME280;63097;51.872;4.460;2023-03-01T09:15:45;103137.75;;;5.49;55.38
74594;BME280;63097;51.872;4.460;2023-03-01T09:18:10;103146.03;;;5.49;56.54
74594;BME280;63097;51.872;4.460;2023-03-01T09:20:35;103136.34;;;5.53;55.19
74594;BME280;63097;51.872;4.460;2023-03-01T09:23:01;103145.06;;;5.66;54.10
74594;BME280;63097;51.872;4.460;2023-03-01T09:25:26;103143.31;;;5.99;53.56
74594;BME280;63097;51.872;4.460;2023-03-01T09:27:52;103138.75;;;5.82;52.96
74594;BME280;63097;51.872;4.460;2023-03-01T09:30:17;103133.16;;;5.91;53.57
74594;BME280;63097;51.872;4.460;2023-03-01T09:32:43;103129.59;;;6.15;52.54
74594;BME280;63097;51.872;4.460;2023-03-01T09:35:08;103123.59;;;6.44;52.93
74594;BME280;63097;51.872;4.460;2023-03-01T09:37:34;103122.41;;;6.46;53.24
74594;BME280;63097;51.872;4.460;2023-03-01T09:40:00;103124.59;;;6.27;51.91
74594;BME280;63097;51.872;4.460;2023-03-01T09:42:27;103128.09;;;6.53;51.70
74594;BME280;63097;51.872;4.460;2023-03-01T09:47:24;103130.03;;;7.08;50.20
74594;BME280;63097;51.872;4.460;2023-03-01T09:52:34;103125.88;;;6.80;49.54
74594;BME280;63097;51.872;4.460;2023-03-01T09:55:08;103125.00;;;6.80;50.24
74594;BME280;63097;51.872;4.460;2023-03-01T09:57:56;103128.66;;;6.88;48.58
74594;BME280;63097;51.872;4.460;2023-03-01T10:00:42;103119.44;;;6.56;49.18
74594;BME280;63097;51.872;4.460;2023-03-01T10:03:43;103122.06;;;6.89;49.77
74594;BME280;63097;51.872;4.460;2023-03-01T10:06:21;103123.28;;;6.71;48.52
74594;BME280;63097;51.872;4.460;2023-03-01T10:08:58;103108.25;;;6.73;49.73
74594;BME280;63097;51.872;4.460;2023-03-01T10:11:30;103108.91;;;6.83;48.75
74594;BME280;63097;51.872;4.460;2023-03-01T10:17:02;103101.13;;;6.95;49.03
74594;BME280;63097;51.872;4.460;2023-03-01T10:19:32;103100.00;;;7.44;47.90
74594;BME280;63097;51.872;4.460;2023-03-01T10:22:16;103099.16;;;7.36;48.57
74594;BME280;63097;51.872;4.460;2023-03-01T10:24:43;103106.03;;;7.56;47.86
74594;BME280;63097;51.872;4.460;2023-03-01T10:27:25;103098.88;;;7.69;46.77
74594;BME280;63097;51.872;4.460;2023-03-01T10:30:21;103088.63;;;8.08;46.86
74594;BME280;63097;51.872;4.460;2023-03-01T10:32:49;103098.56;;;7.95;46.77
74594;BME280;63097;51.872;4.460;2023-03-01T10:35:19;103089.63;;;7.85;46.83
74594;BME280;63097;51.872;4.460;2023-03-01T10:38:04;103092.47;;;8.38;45.34
74594;BME280;63097;51.872;4.460;2023-03-01T10:40:32;103081.88;;;8.64;46.46
74594;BME280;63097;51.872;4.460;2023-03-01T10:42:59;103080.84;;;9.17;43.65
74594;BME280;63097;51.872;4.460;2023-03-01T10:48:13;103082.50;;;9.55;44.11
74594;BME280;63097;51.872;4.460;2023-03-01T10:50:45;103065.06;;;9.47;42.27
74594;BME280;63097;51.872;4.460;2023-03-01T10:53:22;103076.47;;;9.52;43.20
74594;BME280;63097;51.872;4.460;2023-03-01T10:55:57;103066.56;;;9.64;43.03
74594;BME280;63097;51.872;4.460;2023-03-01T10:58:23;103058.56;;;10.61;41.40
74594;BME280;63097;51.872;4.460;2023-03-01T11:01:06;103059.63;;;10.60;42.11
74594;BME280;63097;51.872;4.460;2023-03-01T11:06:32;103042.78;;;10.89;40.02
74594;BME280;63097;51.872;4.460;2023-03-01T11:09:20;103045.59;;;11.24;40.31
74594;BME280;63097;51.872;4.460;2023-03-01T11:11:46;103038.28;;;11.23;39.47
74594;BME280;63097;51.872;4.460;2023-03-01T11:14:27;103036.66;;;10.31;40.53
74594;BME280;63097;51.872;4.460;2023-03-01T11:17:15;103034.13;;;11.05;38.44
74594;BME280;63097;51.872;4.460;2023-03-01T11:19:42;103020.09;;;11.27;38.22
74594;BME280;63097;51.872;4.460;2023-03-01T11:22:13;103030.13;;;11.89;37.21
74594;BME280;63097;51.872;4.460;2023-03-01T11:24:40;103028.72;;;11.66;37.76
74594;BME280;63097;51.872;4.460;2023-03-01T11:27:19;103025.34;;;11.43;38.43
74594;BME280;63097;51.872;4.460;2023-03-01T11:29:54;103023.00;;;11.80;38.47
74594;BME280;63097;51.872;4.460;2023-03-01T11:32:25;103017.41;;;12.54;36.26
74594;BME280;63097;51.872;4.460;2023-03-01T11:34:57;103010.72;;;12.29;36.99
74594;BME280;63097;51.872;4.460;2023-03-01T11:37:37;103005.34;;;12.40;37.81
74594;BME280;63097;51.872;4.460;2023-03-01T11:40:23;103014.78;;;12.33;36.83
74594;BME280;63097;51.872;4.460;2023-03-01T11:45:24;103005.13;;;12.29;37.31
74594;BME280;63097;51.872;4.460;2023-03-01T11:50:48;103001.59;;;13.57;34.98
74594;BME280;63097;51.872;4.460;2023-03-01T11:59:03;102980.66;;;12.44;36.77
74594;BME280;63097;51.872;4.460;2023-03-01T12:04:35;102974.41;;;13.13;33.83
74594;BME280;63097;51.872;4.460;2023-03-01T12:07:22;102969.28;;;13.04;33.81
74594;BME280;63097;51.872;4.460;2023-03-01T12:20:50;102949.88;;;13.79;33.20
74594;BME280;63097;51.872;4.460;2023-03-01T12:29:26;102948.88;;;12.77;34.19
74594;BME280;63097;51.872;4.460;2023-03-01T12:32:19;102945.34;;;14.16;32.82
74594;BME280;63097;51.872;4.460;2023-03-01T12:38:01;102935.28;;;13.71;32.93
74594;BME280;63097;51.872;4.460;2023-03-01T12:51:37;102933.63;;;14.32;31.95
74594;BME280;63097;51.872;4.460;2023-03-01T12:54:22;102930.66;;;14.27;32.95
74594;BME280;63097;51.872;4.460;2023-03-01T12:56:51;102935.00;;;15.15;30.61
74594;BME280;63097;51.872;4.460;2023-03-01T12:59:27;102931.25;;;14.85;30.98
74594;BME280;63097;51.872;4.460;2023-03-01T13:07:33;102919.81;;;14.37;31.59
74594;BME280;63097;51.872;4.460;2023-03-01T13:17:53;102912.16;;;14.51;30.10
74594;BME280;63097;51.872;4.460;2023-03-01T13:20:21;102903.38;;;14.90;29.27
74594;BME280;63097;51.872;4.460;2023-03-01T13:23:00;102905.13;;;14.10;30.63
74594;BME280;63097;51.872;4.460;2023-03-01T13:25:26;102892.03;;;14.60;29.94
74594;BME280;63097;51.872;4.460;2023-03-01T13:30:55;102893.28;;;14.40;30.83
74594;BME280;63097;51.872;4.460;2023-03-01T13:35:53;102881.53;;;15.53;29.92
74594;BME280;63097;51.872;4.460;2023-03-01T13:41:12;102872.06;;;14.93;30.36
74594;BME280;63097;51.872;4.460;2023-03-01T13:43:41;102864.81;;;15.40;30.05
74594;BME280;63097;51.872;4.460;2023-03-01T13:48:40;102859.28;;;14.61;31.14
74594;BME280;63097;51.872;4.460;2023-03-01T13:51:09;102857.69;;;15.44;31.94
74594;BME280;63097;51.872;4.460;2023-03-01T13:53:46;102851.25;;;15.37;30.30
74594;BME280;63097;51.872;4.460;2023-03-01T13:56:16;102844.38;;;14.85;30.66
74594;BME280;63097;51.872;4.460;2023-03-01T13:58:53;102842.72;;;14.35;30.93
74594;BME280;63097;51.872;4.460;2023-03-01T14:01:36;102842.59;;;13.98;31.13
74594;BME280;63097;51.872;4.460;2023-03-01T14:04:03;102839.31;;;14.33;30.29
74594;BME280;63097;51.872;4.460;2023-03-01T14:06:43;102823.75;;;14.97;30.64
74594;BME280;63097;51.872;4.460;2023-03-01T14:12:26;102827.78;;;14.16;30.96
74594;BME280;63097;51.872;4.460;2023-03-01T14:15:22;102822.97;;;15.08;29.99
74594;BME280;63097;51.872;4.460;2023-03-01T14:20:30;102815.00;;;14.51;29.87
74594;BME280;63097;51.872;4.460;2023-03-01T14:22:59;102810.97;;;15.20;29.64
74594;BME280;63097;51.872;4.460;2023-03-01T14:25:32;102790.81;;;16.35;27.79
74594;BME280;63097;51.872;4.460;2023-03-01T14:30:34;102788.94;;;15.35;28.25
74594;BME280;63097;51.872;4.460;2023-03-01T14:33:03;102786.53;;;15.38;29.04
74594;BME280;63097;51.872;4.460;2023-03-01T14:35:32;102775.25;;;14.79;29.59
74594;BME280;63097;51.872;4.460;2023-03-01T14:37:57;102773.84;;;14.70;29.85
74594;BME280;63097;51.872;4.460;2023-03-01T14:40:35;102769.69;;;15.08;28.81
74594;BME280;63097;51.872;4.460;2023-03-01T14:43:09;102761.53;;;14.71;29.00